createdAt,value
2023-03-29T00:00:35.813Z,6.38
2023-03-29T00:01:41.871Z,6.41
2023-03-29T00:02:48.365Z,6.34
2023-03-29T00:03:51.927Z,6.30
2023-03-29T00:04:54.286Z,6.33
2023-03-29T00:06:03.959Z,6.27
2023-03-29T00:07:07.529Z,6.22
2023-03-29T00:08:14.424Z,6.21
2023-03-29T00:09:18.254Z,6.25
2023-03-29T00:10:24.231Z,6.28
2023-03-29T00:11:27.383Z,6.27
2023-03-29T00:12:30.455Z,6.32
2023-03-29T00:13:33.603Z,6.27
2023-03-29T00:14:35.859Z,6.22
2023-03-29T00:15:38.041Z,6.26
2023-03-29T00:16:45.023Z,6.27
2023-03-29T00:17:48.499Z,6.36
2023-03-29T00:18:54.248Z,6.27
2023-03-29T00:19:57.934Z,6.29
2023-03-29T00:21:01.572Z,6.23
2023-03-29T00:22:06.127Z,6.23
2023-03-29T00:23:08.362Z,6.34
2023-03-29T00:24:10.696Z,6.24
2023-03-29T00:25:13.812Z,6.25
2023-03-29T00:26:16.402Z,6.20
2023-03-29T00:27:21.778Z,6.21
2023-03-29T00:28:28.108Z,6.19
2023-03-29T00:29:31.600Z,6.26
2023-03-29T00:30:34.907Z,6.32
2023-03-29T00:31:38.742Z,6.37
2023-03-29T00:32:43.149Z,6.39
2023-03-29T00:33:45.985Z,6.36
2023-03-29T00:34:55.629Z,6.42
2023-03-29T00:35:59.092Z,6.49
2023-03-29T00:37:02.463Z,6.51
2023-03-29T00:38:06.155Z,6.54
2023-03-29T00:39:09.481Z,6.51
2023-03-29T00:40:12.104Z,6.50
2023-03-29T00:41:14.520Z,6.46
2023-03-29T00:42:17.584Z,6.56
2023-03-29T00:43:19.862Z,6.49
2023-03-29T00:45:07.447Z,6.43
2023-03-29T00:46:09.714Z,6.38
2023-03-29T00:47:11.974Z,6.35
2023-03-29T00:48:18.064Z,6.40
2023-03-29T00:49:21.061Z,6.35
2023-03-29T00:50:29.867Z,6.35
2023-03-29T00:51:35.584Z,6.30
2023-03-29T00:52:41.228Z,6.30
2023-03-29T00:53:48.735Z,6.24
2023-03-29T00:54:54.862Z,6.22
2023-03-29T00:56:07.316Z,6.21
2023-03-29T00:57:11.866Z,6.32
2023-03-29T00:58:17.864Z,6.30
2023-03-29T00:59:24.674Z,6.24
2023-03-29T01:00:33.334Z,6.32
2023-03-29T01:01:55.016Z,6.31
2023-03-29T01:03:00.167Z,6.39
2023-03-29T01:04:08.594Z,6.32
2023-03-29T01:05:20.112Z,6.37
2023-03-29T01:06:28.924Z,6.36
2023-03-29T01:07:35.261Z,6.42
2023-03-29T01:08:47.459Z,6.34
2023-03-29T01:09:57.229Z,6.30
2023-03-29T01:11:15.837Z,6.27
2023-03-29T01:12:24.202Z,6.31
2023-03-29T01:13:41.712Z,6.25
2023-03-29T01:14:52.693Z,6.22
2023-03-29T01:15:58.998Z,6.27
2023-03-29T01:17:02.083Z,6.23
2023-03-29T01:18:04.545Z,6.20
2023-03-29T01:19:10.467Z,6.22
2023-03-29T01:20:19.146Z,6.32
2023-03-29T01:21:21.398Z,6.22
2023-03-29T01:22:54.605Z,6.21
2023-03-29T01:24:09.184Z,6.18
2023-03-29T01:25:26.725Z,6.10
2023-03-29T01:26:41.707Z,6.15
2023-03-29T01:27:53.560Z,6.13
2023-03-29T01:29:05.686Z,6.17
2023-03-29T01:30:23.479Z,6.16
2023-03-29T01:31:29.975Z,6.15
2023-03-29T01:32:44.640Z,6.15
2023-03-29T01:33:55.595Z,6.16
2023-03-29T01:35:22.370Z,6.14
2023-03-29T01:36:37.810Z,6.13
2023-03-29T01:37:49.343Z,6.16
2023-03-29T01:38:58.253Z,6.20
2023-03-29T01:40:01.453Z,6.14
2023-03-29T01:41:04.356Z,6.16
2023-03-29T01:42:25.037Z,6.20
2023-03-29T01:43:34.220Z,6.12
2023-03-29T01:45:06.379Z,6.14
2023-03-29T01:46:18.921Z,6.10
2023-03-29T01:47:27.332Z,6.16
2023-03-29T01:48:32.685Z,6.13
2023-03-29T01:49:45.267Z,6.11
2023-03-29T01:50:52.031Z,6.16
2023-03-29T01:52:11.393Z,6.19
2023-03-29T01:53:18.321Z,6.15
2023-03-29T01:54:26.271Z,6.22
2023-03-29T01:55:34.628Z,6.18
2023-03-29T01:56:43.444Z,6.06
2023-03-29T01:57:48.555Z,6.10
2023-03-29T01:59:08.288Z,6.19
2023-03-29T02:02:11.831Z,6.07
2023-03-29T02:03:17.387Z,6.10
2023-03-29T02:04:30.523Z,6.17
2023-03-29T02:05:34.922Z,6.12
2023-03-29T02:06:37.827Z,6.11
2023-03-29T02:07:43.478Z,6.22
2023-03-29T02:08:46.777Z,6.28
2023-03-29T02:09:52.511Z,6.25
2023-03-29T02:10:54.986Z,6.24
2023-03-29T02:12:00.801Z,6.18
2023-03-29T02:13:03.964Z,6.18
2023-03-29T02:14:09.822Z,6.26
2023-03-29T02:15:15.221Z,6.23
2023-03-29T02:17:34.787Z,6.26
2023-03-29T02:18:37.769Z,6.19
2023-03-29T02:19:40.355Z,6.24
2023-03-29T02:20:47.184Z,6.19
2023-03-29T02:21:58.071Z,6.10
2023-03-29T02:23:05.965Z,6.06
2023-03-29T02:24:13.297Z,6.09
2023-03-29T02:25:17.443Z,6.07
2023-03-29T02:26:22.434Z,6.07
2023-03-29T02:27:27.244Z,6.15
2023-03-29T02:28:31.849Z,6.05
2023-03-29T02:29:34.145Z,6.07
2023-03-29T02:39:35.819Z,6.15
2023-03-29T02:40:40.687Z,6.15
2023-03-29T02:41:47.160Z,6.02
2023-03-29T02:42:49.935Z,5.98
2023-03-29T02:43:53.244Z,6.04
2023-03-29T02:44:58.720Z,6.05
2023-03-29T02:46:02.718Z,6.11
2023-03-29T02:47:16.020Z,6.08
2023-03-29T02:48:22.121Z,6.06
2023-03-29T02:49:24.909Z,6.07
2023-03-29T02:50:33.596Z,6.12
2023-03-29T02:51:37.229Z,6.15
2023-03-29T02:52:44.426Z,6.22
2023-03-29T02:53:55.489Z,6.18
2023-03-29T02:55:00.386Z,6.20
2023-03-29T02:56:04.494Z,6.25
2023-03-29T02:57:07.416Z,6.32
2023-03-29T02:58:10.244Z,6.34
2023-03-29T02:59:16.831Z,6.41
2023-03-29T03:00:20.149Z,6.44
2023-03-29T03:01:23.045Z,6.45
2023-03-29T03:02:26.066Z,6.44
2023-03-29T03:03:29.749Z,6.54
2023-03-29T03:04:35.713Z,6.49
2023-03-29T03:05:38.788Z,6.50
2023-03-29T03:06:42.372Z,6.56
2023-03-29T03:07:46.275Z,6.66
2023-03-29T03:08:49.612Z,6.65
2023-03-29T03:09:52.657Z,6.57
2023-03-29T03:10:55.044Z,6.55
2023-03-29T03:11:57.258Z,6.60
2023-03-29T03:13:01.402Z,6.59
2023-03-29T03:14:07.390Z,6.59
2023-03-29T03:15:10.704Z,6.62
2023-03-29T03:16:15.313Z,6.56
2023-03-29T03:17:18.901Z,6.58
2023-03-29T03:18:23.310Z,6.60
2023-03-29T03:19:25.818Z,6.56
2023-03-29T03:20:28.233Z,6.64
2023-03-29T03:21:31.061Z,6.60
2023-03-29T03:22:35.035Z,6.61
2023-03-29T03:23:37.298Z,6.64
2023-03-29T03:24:40.080Z,6.59
2023-03-29T03:25:44.568Z,6.51
2023-03-29T03:26:47.147Z,6.46
2023-03-29T03:27:50.268Z,6.45
2023-03-29T03:28:56.360Z,6.53
2023-03-29T03:30:17.412Z,6.68
2023-03-29T03:31:41.277Z,6.68
2023-03-29T03:32:50.517Z,6.48
2023-03-29T03:34:28.067Z,6.35
2023-03-29T03:35:35.843Z,6.53
2023-03-29T03:36:38.149Z,6.70
2023-03-29T03:37:40.594Z,6.78
2023-03-29T03:38:44.259Z,6.39
2023-03-29T03:39:47.493Z,6.25
2023-03-29T03:40:55.151Z,6.34
2023-03-29T03:41:57.905Z,6.45
2023-03-29T03:43:00.512Z,6.57
2023-03-29T03:44:02.788Z,6.63
2023-03-29T03:45:08.234Z,6.72
2023-03-29T03:46:29.923Z,6.83
2023-03-29T03:47:33.997Z,6.89
2023-03-29T03:48:50.109Z,6.96
2023-03-29T03:50:06.370Z,6.99
2023-03-29T03:51:09.307Z,6.93
2023-03-29T03:52:11.805Z,6.93
2023-03-29T03:53:14.019Z,7.02
2023-03-29T03:54:35.205Z,7.03
2023-03-29T03:56:02.126Z,7.05
2023-03-29T03:57:12.680Z,7.01
2023-03-29T03:58:23.515Z,6.92
2023-03-29T03:59:26.548Z,6.73
2023-03-29T04:00:35.440Z,6.65
2023-03-29T04:01:58.492Z,6.63
2023-03-29T04:03:02.287Z,6.64
2023-03-29T04:04:05.169Z,6.54
2023-03-29T04:05:08.810Z,6.52
2023-03-29T04:06:13.881Z,6.61
2023-03-29T04:07:45.307Z,6.69
2023-03-29T04:09:06.851Z,6.58
2023-03-29T04:10:13.233Z,6.50
2023-03-29T04:11:41.842Z,6.48
2023-03-29T04:12:44.535Z,6.56
2023-03-29T04:13:46.761Z,6.52
2023-03-29T04:15:17.741Z,6.53
2023-03-29T04:16:27.730Z,6.46
2023-03-29T04:17:32.242Z,6.51
2023-03-29T04:18:38.622Z,6.51
2023-03-29T04:19:41.051Z,6.52
2023-03-29T04:20:43.912Z,6.48
2023-03-29T04:21:49.124Z,6.40
2023-03-29T04:22:51.984Z,6.33
2023-03-29T04:23:55.272Z,6.15
2023-03-29T04:24:58.239Z,6.17
2023-03-29T04:26:35.946Z,6.24
2023-03-29T04:27:46.411Z,6.29
2023-03-29T04:29:00.134Z,6.34
2023-03-29T04:30:14.398Z,6.32
2023-03-29T04:31:56.442Z,6.35
2023-03-29T04:33:23.692Z,6.41
2023-03-29T04:34:33.825Z,6.42
2023-03-29T04:35:36.578Z,6.36
2023-03-29T04:36:39.061Z,6.36
2023-03-29T04:37:48.203Z,6.39
2023-03-29T04:38:54.856Z,6.48
2023-03-29T04:40:01.342Z,6.41
2023-03-29T04:41:09.422Z,6.36
2023-03-29T04:42:30.521Z,6.37
2023-03-29T04:43:34.451Z,6.42
2023-03-29T04:44:55.575Z,6.39
2023-03-29T04:46:11.161Z,6.44
2023-03-29T04:47:40.951Z,6.22
2023-03-29T04:48:51.277Z,6.15
2023-03-29T04:50:01.628Z,6.29
2023-03-29T04:51:12.721Z,6.26
2023-03-29T04:52:19.234Z,6.18
2023-03-29T04:53:22.184Z,6.19
2023-03-29T04:54:25.582Z,6.19
2023-03-29T04:55:41.225Z,6.28
2023-03-29T04:56:46.746Z,6.38
2023-03-29T04:58:11.796Z,6.25
2023-03-29T04:59:15.624Z,6.19
2023-03-29T05:00:20.411Z,6.02
2023-03-29T05:01:40.861Z,6.08
2023-03-29T05:02:44.341Z,6.13
2023-03-29T05:03:47.614Z,6.34
2023-03-29T05:04:59.529Z,6.33
2023-03-29T05:06:07.089Z,6.48
2023-03-29T05:07:10.244Z,6.46
2023-03-29T05:08:12.743Z,6.60
2023-03-29T05:09:35.513Z,6.54
2023-03-29T05:10:46.322Z,6.64
2023-03-29T05:11:50.365Z,6.44
2023-03-29T05:12:54.044Z,6.32
2023-03-29T05:14:02.241Z,6.23
2023-03-29T05:15:08.260Z,6.21
2023-03-29T05:16:11.201Z,6.25
2023-03-29T05:17:17.072Z,6.33
2023-03-29T05:18:21.025Z,6.49
2023-03-29T05:19:23.288Z,6.58
2023-03-29T05:20:25.470Z,6.59
2023-03-29T05:21:28.480Z,6.65
2023-03-29T05:22:33.425Z,6.69
2023-03-29T05:23:36.177Z,6.50
2023-03-29T05:24:42.038Z,6.37
2023-03-29T05:25:53.430Z,6.38
2023-03-29T05:26:56.328Z,6.43
2023-03-29T05:28:00.085Z,6.54
2023-03-29T05:29:02.811Z,6.53
2023-03-29T05:30:05.941Z,6.64
2023-03-29T05:31:17.387Z,6.70
2023-03-29T05:32:23.068Z,6.77
2023-03-29T05:33:25.833Z,6.66
2023-03-29T05:34:29.650Z,6.61
2023-03-29T05:35:35.880Z,6.42
2023-03-29T05:36:42.846Z,6.53
2023-03-29T05:37:47.163Z,6.45
2023-03-29T05:38:49.814Z,6.59
2023-03-29T05:39:53.649Z,6.52
2023-03-29T05:41:10.737Z,6.43
2023-03-29T05:42:37.835Z,6.38
2023-03-29T05:43:43.949Z,6.50
2023-03-29T05:44:46.498Z,6.40
2023-03-29T05:45:55.688Z,6.44
2023-03-29T05:46:58.561Z,6.53
2023-03-29T05:48:01.882Z,6.52
2023-03-29T05:49:04.635Z,6.67
2023-03-29T05:50:32.793Z,6.67
2023-03-29T05:51:35.822Z,6.51
2023-03-29T05:52:38.724Z,6.52
2023-03-29T05:53:41.182Z,6.71
2023-03-29T05:54:43.543Z,6.71
2023-03-29T05:55:47.803Z,6.53
2023-03-29T05:56:52.531Z,6.71
2023-03-29T05:57:55.642Z,6.79
2023-03-29T05:59:02.153Z,6.76
2023-03-29T06:00:23.821Z,6.87
2023-03-29T06:01:32.384Z,6.68
2023-03-29T06:02:43.705Z,6.56
2023-03-29T06:03:47.414Z,6.73
2023-03-29T06:04:50.286Z,6.83
2023-03-29T06:06:02.251Z,6.89
2023-03-29T06:07:05.512Z,6.86
2023-03-29T06:08:08.861Z,6.95
2023-03-29T06:09:22.737Z,6.76
2023-03-29T06:10:36.408Z,6.85
2023-03-29T06:11:56.357Z,6.87
2023-03-29T06:13:18.402Z,6.99
2023-03-29T06:14:23.194Z,6.93
2023-03-29T06:15:30.805Z,6.96
2023-03-29T06:16:40.190Z,6.97
2023-03-29T06:17:45.852Z,6.98
2023-03-29T06:18:48.738Z,7.01
2023-03-29T06:19:53.083Z,7.04
2023-03-29T06:23:59.738Z,7.03
2023-03-29T06:25:07.037Z,7.09
2023-03-29T06:26:10.597Z,7.04
2023-03-29T06:27:14.299Z,7.03
2023-03-29T06:28:17.792Z,7.04
2023-03-29T06:29:20.838Z,7.05
2023-03-29T06:30:23.258Z,7.14
2023-03-29T06:31:31.510Z,7.07
2023-03-29T06:32:35.645Z,7.03
2023-03-29T06:33:43.129Z,7.12
2023-03-29T06:35:04.975Z,7.17
2023-03-29T06:36:11.886Z,7.27
2023-03-29T06:37:14.474Z,7.22
2023-03-29T06:38:17.405Z,7.30
2023-03-29T06:39:39.025Z,7.44
2023-03-29T06:41:06.842Z,7.53
2023-03-29T06:42:32.861Z,7.47
2023-03-29T06:44:04.939Z,7.52
2023-03-29T06:45:11.692Z,7.60
2023-03-29T06:46:15.040Z,7.60
2023-03-29T06:47:31.358Z,7.62
2023-03-29T06:48:33.734Z,7.60
2023-03-29T06:49:36.065Z,7.58
2023-03-29T06:50:48.349Z,7.71
2023-03-29T06:51:52.891Z,7.82
2023-03-29T06:52:56.237Z,7.73
2023-03-29T06:53:59.256Z,7.74
2023-03-29T06:55:02.802Z,7.71
2023-03-29T06:56:08.956Z,7.79
2023-03-29T06:57:16.180Z,7.80
2023-03-29T06:58:18.616Z,7.82
2023-03-29T06:59:21.402Z,7.86
2023-03-29T07:00:35.797Z,7.83
2023-03-29T07:01:47.296Z,7.77
2023-03-29T07:03:00.720Z,7.76
2023-03-29T07:04:08.153Z,7.75
2023-03-29T07:05:27.213Z,7.84
2023-03-29T07:06:29.786Z,7.84
2023-03-29T07:07:52.637Z,7.85
2023-03-29T07:09:14.134Z,7.86
2023-03-29T07:10:41.595Z,7.85
2023-03-29T07:12:02.452Z,8.02
2023-03-29T07:13:07.007Z,8.02
2023-03-29T07:14:09.664Z,8.01
2023-03-29T07:15:12.266Z,7.98
2023-03-29T07:16:32.931Z,8.10
2023-03-29T07:17:55.916Z,8.07
2023-03-29T07:18:59.038Z,8.07
2023-03-29T07:20:25.048Z,8.13
2023-03-29T07:21:38.488Z,8.08
2023-03-29T07:22:42.256Z,8.06
2023-03-29T07:23:44.484Z,8.05
2023-03-29T07:24:47.249Z,8.00
2023-03-29T07:25:50.438Z,8.04
2023-03-29T07:27:03.398Z,8.16
2023-03-29T07:28:08.008Z,8.11
2023-03-29T07:29:10.638Z,8.15
2023-03-29T07:30:19.066Z,8.28
2023-03-29T07:31:21.828Z,8.37
2023-03-29T07:32:31.629Z,8.43
2023-03-29T07:33:52.318Z,8.41
2023-03-29T07:34:55.664Z,8.37
2023-03-29T07:36:04.986Z,8.46
2023-03-29T07:37:07.413Z,8.47
2023-03-29T07:38:10.006Z,8.49
2023-03-29T07:39:16.328Z,8.44
2023-03-29T07:40:30.945Z,8.52
2023-03-29T07:41:33.154Z,8.57
2023-03-29T07:42:43.861Z,8.50
2023-03-29T07:43:51.805Z,8.65
2023-03-29T07:44:58.521Z,8.53
2023-03-29T07:46:06.566Z,8.46
2023-03-29T07:47:10.586Z,8.45
2023-03-29T07:48:14.535Z,8.44
2023-03-29T07:49:27.326Z,8.64
2023-03-29T07:50:32.536Z,8.70
2023-03-29T07:51:37.012Z,8.75
2023-03-29T07:52:44.622Z,8.63
2023-03-29T07:53:46.895Z,8.56
2023-03-29T07:55:13.773Z,8.47
2023-03-29T07:56:29.056Z,8.68
2023-03-29T07:57:49.326Z,8.80
2023-03-29T07:58:52.124Z,8.71
2023-03-29T07:59:55.171Z,8.80
2023-03-29T08:01:02.612Z,8.91
2023-03-29T08:02:23.990Z,8.71
2023-03-29T08:03:29.671Z,8.67
2023-03-29T08:04:32.236Z,8.70
2023-03-29T08:05:52.895Z,8.89
2023-03-29T08:06:56.556Z,9.00
2023-03-29T08:08:06.703Z,8.99
2023-03-29T08:09:32.016Z,9.05
2023-03-29T08:10:35.978Z,9.19
2023-03-29T08:11:41.358Z,9.26
2023-03-29T08:12:52.521Z,9.40
2023-03-29T08:14:00.297Z,9.57
2023-03-29T08:15:02.847Z,9.60
2023-03-29T08:16:09.201Z,9.60
2023-03-29T08:17:17.719Z,9.46
2023-03-29T08:18:24.549Z,9.36
2023-03-29T08:19:27.056Z,9.41
2023-03-29T08:20:39.503Z,9.53
2023-03-29T08:21:41.857Z,9.54
2023-03-29T08:22:44.669Z,9.28
2023-03-29T08:24:02.124Z,9.26
2023-03-29T08:25:18.525Z,9.42
2023-03-29T08:26:24.563Z,9.57
2023-03-29T08:27:27.208Z,9.51
2023-03-29T08:28:30.091Z,9.37
2023-03-29T08:29:32.257Z,9.30
2023-03-29T08:30:34.746Z,9.33
2023-03-29T08:31:38.467Z,9.48
2023-03-29T08:32:41.585Z,9.57
2023-03-29T08:33:45.203Z,9.49
2023-03-29T08:35:09.532Z,9.70
2023-03-29T08:36:17.552Z,9.73
2023-03-29T08:37:20.497Z,9.76
2023-03-29T08:38:27.768Z,9.81
2023-03-29T08:39:31.609Z,9.81
2023-03-29T08:41:45.995Z,9.94
2023-03-29T08:42:53.899Z,10.09
2023-03-29T08:44:20.376Z,10.17
2023-03-29T08:45:43.163Z,10.19
2023-03-29T08:47:29.825Z,10.18
2023-03-29T08:48:56.845Z,10.37
2023-03-29T08:50:01.460Z,10.31
2023-03-29T08:51:29.402Z,10.37
2023-03-29T08:52:39.375Z,10.14
2023-03-29T08:54:05.357Z,10.20
2023-03-29T08:55:43.012Z,10.33
2023-03-29T08:57:21.786Z,10.74
2023-03-29T08:58:32.227Z,10.65
2023-03-29T08:59:34.918Z,10.73
2023-03-29T09:00:47.712Z,10.77
2023-03-29T09:01:53.907Z,10.93
2023-03-29T09:03:00.051Z,10.99
2023-03-29T09:04:05.929Z,11.19
2023-03-29T09:05:39.989Z,11.08
2023-03-29T09:06:51.004Z,11.18
2023-03-29T09:07:57.396Z,11.34
2023-03-29T09:09:01.285Z,11.43
2023-03-29T09:10:03.802Z,11.60
2023-03-29T09:11:35.505Z,11.77
2023-03-29T09:13:11.999Z,11.76
2023-03-29T09:14:34.314Z,11.64
2023-03-29T09:15:45.654Z,11.37
2023-03-29T09:17:26.388Z,11.61
2023-03-29T09:18:47.430Z,11.91
2023-03-29T09:19:49.757Z,11.77
2023-03-29T09:21:04.308Z,11.68
2023-03-29T09:22:29.488Z,11.86
2023-03-29T09:23:55.788Z,11.88
2023-03-29T09:25:34.544Z,12.05
2023-03-29T09:26:56.187Z,12.31
2023-03-29T09:28:59.606Z,12.71
2023-03-29T09:30:25.671Z,12.48
2023-03-29T09:31:44.412Z,12.57
2023-03-29T09:32:52.919Z,12.68
2023-03-29T09:34:06.985Z,12.87
2023-03-29T09:35:29.610Z,13.20
2023-03-29T09:36:47.192Z,12.79
2023-03-29T09:37:52.518Z,12.56
2023-03-29T09:38:55.496Z,12.84
2023-03-29T09:40:05.273Z,13.33
2023-03-29T09:41:49.344Z,13.36
2023-03-29T09:42:53.917Z,13.44
2023-03-29T09:44:00.056Z,13.67
2023-03-29T09:45:09.198Z,13.55
2023-03-29T09:46:43.283Z,13.48
2023-03-29T09:48:05.213Z,13.30
2023-03-29T09:49:12.328Z,13.51
2023-03-29T09:50:31.583Z,13.70
2023-03-29T09:51:35.169Z,13.94
2023-03-29T09:52:37.641Z,14.13
2023-03-29T09:54:00.718Z,13.81
2023-03-29T09:55:28.515Z,13.53
2023-03-29T09:56:39.802Z,13.69
2023-03-29T09:57:50.074Z,13.70
2023-03-29T09:58:53.525Z,13.69
2023-03-29T09:59:57.607Z,13.85
2023-03-29T10:01:03.158Z,14.10
2023-03-29T10:02:13.449Z,14.25
2023-03-29T10:03:25.384Z,14.13
2023-03-29T10:04:42.911Z,14.51
2023-03-29T10:05:47.344Z,14.70
2023-03-29T10:06:52.745Z,14.67
2023-03-29T10:08:01.117Z,14.53
2023-03-29T10:09:04.435Z,14.75
2023-03-29T10:10:27.153Z,14.90
2023-03-29T10:11:32.963Z,14.72
2023-03-29T10:12:35.237Z,14.71
2023-03-29T10:13:45.867Z,14.55
2023-03-29T10:14:53.634Z,14.44
2023-03-29T10:16:01.804Z,14.53
2023-03-29T10:17:11.168Z,14.31
2023-03-29T10:18:13.988Z,14.33
2023-03-29T10:19:22.311Z,14.50
2023-03-29T10:20:24.781Z,14.71
2023-03-29T10:21:29.620Z,14.96
2023-03-29T10:22:35.124Z,15.10
2023-03-29T10:23:38.197Z,15.18
2023-03-29T10:24:40.454Z,14.68
2023-03-29T10:25:43.088Z,14.64
2023-03-29T10:26:45.958Z,14.57
2023-03-29T10:27:48.309Z,14.44
2023-03-29T10:28:57.028Z,14.47
2023-03-29T10:30:07.306Z,14.88
2023-03-29T10:31:18.432Z,14.82
2023-03-29T10:32:37.600Z,15.26
2023-03-29T10:33:40.164Z,15.44
2023-03-29T10:34:43.720Z,15.45
2023-03-29T10:35:48.042Z,15.89
2023-03-29T10:36:58.492Z,16.23
2023-03-29T10:38:07.522Z,16.22
2023-03-29T10:39:13.189Z,16.59
2023-03-29T10:40:22.207Z,16.37
2023-03-29T10:41:27.155Z,15.60
2023-03-29T10:42:29.445Z,15.58
2023-03-29T10:43:37.111Z,15.45
2023-03-29T10:44:39.693Z,15.85
2023-03-29T10:45:42.419Z,16.24
2023-03-29T10:46:44.815Z,16.48
2023-03-29T10:47:48.679Z,16.32
2023-03-29T10:48:56.621Z,16.22
2023-03-29T10:49:58.968Z,16.30
2023-03-29T10:51:03.194Z,17.03
2023-03-29T10:52:07.284Z,16.99
2023-03-29T10:53:18.849Z,16.35
2023-03-29T10:54:24.284Z,16.73
2023-03-29T10:55:36.855Z,16.94
2023-03-29T10:56:47.148Z,16.92
2023-03-29T10:58:01.602Z,16.37
2023-03-29T10:59:25.487Z,16.12
2023-03-29T11:00:51.100Z,15.80
2023-03-29T11:02:15.015Z,16.32
2023-03-29T11:03:40.210Z,16.28
2023-03-29T11:04:42.757Z,16.31
2023-03-29T11:05:50.593Z,15.91
2023-03-29T11:06:59.622Z,15.88
2023-03-29T11:08:19.889Z,16.12
2023-03-29T11:09:33.788Z,16.45
2023-03-29T11:11:14.889Z,16.31
2023-03-29T11:12:31.650Z,16.50
2023-03-29T11:13:40.791Z,17.16
2023-03-29T11:14:55.672Z,17.59
2023-03-29T11:16:19.725Z,16.28
2023-03-29T11:17:50.927Z,17.05
2023-03-29T11:19:02.145Z,17.14
2023-03-29T11:20:26.934Z,17.30
2023-03-29T11:21:54.222Z,17.57
2023-03-29T11:23:22.175Z,17.38
2023-03-29T11:24:38.022Z,17.17
2023-03-29T11:26:04.879Z,17.06
2023-03-29T11:27:28.805Z,17.25
2023-03-29T11:28:47.180Z,17.70
2023-03-29T11:29:58.646Z,17.70
2023-03-29T11:31:19.173Z,17.58
2023-03-29T11:32:39.085Z,17.24
2023-03-29T11:34:13.524Z,17.95
2023-03-29T11:35:47.213Z,17.35
2023-03-29T11:37:00.981Z,17.48
2023-03-29T11:38:29.294Z,17.76
2023-03-29T11:40:00.290Z,17.23
2023-03-29T11:41:18.818Z,17.64
2023-03-29T11:42:25.380Z,18.15
2023-03-29T11:43:36.908Z,17.64
2023-03-29T11:44:41.515Z,17.16
2023-03-29T11:46:09.212Z,17.64
2023-03-29T11:47:26.512Z,17.49
2023-03-29T11:48:34.730Z,17.58
2023-03-29T11:49:46.604Z,17.68
2023-03-29T11:51:16.011Z,17.75
2023-03-29T11:52:41.187Z,18.05
2023-03-29T11:53:51.247Z,18.14
2023-03-29T11:55:12.522Z,18.46
2023-03-29T11:56:26.596Z,18.47
2023-03-29T11:57:43.669Z,18.19
2023-03-29T11:58:50.368Z,18.08
2023-03-29T12:00:07.905Z,18.15
2023-03-29T12:01:50.677Z,17.47
2023-03-29T12:03:13.135Z,17.19
2023-03-29T12:04:28.724Z,17.63
2023-03-29T12:05:44.138Z,17.19
2023-03-29T12:07:28.783Z,17.11
2023-03-29T12:08:44.121Z,17.22
2023-03-29T12:09:53.082Z,17.46
2023-03-29T12:11:08.473Z,17.14
2023-03-29T12:12:19.924Z,17.02
2023-03-29T12:13:30.437Z,17.13
2023-03-29T12:14:35.738Z,16.98
2023-03-29T12:15:45.986Z,17.19
2023-03-29T12:16:53.764Z,17.16
2023-03-29T12:18:08.287Z,16.84
2023-03-29T12:19:16.452Z,17.40
2023-03-29T12:20:26.656Z,17.72
2023-03-29T12:21:30.900Z,17.80
2023-03-29T12:22:33.795Z,17.78
2023-03-29T12:23:36.364Z,17.57
2023-03-29T12:24:41.592Z,17.41
2023-03-29T12:26:11.969Z,17.16
2023-03-29T12:27:49.479Z,17.15
2023-03-29T12:29:10.589Z,16.97
2023-03-29T12:30:23.368Z,17.06
2023-03-29T12:31:31.436Z,16.84
2023-03-29T12:32:49.371Z,17.13
2023-03-29T12:34:56.087Z,16.62
2023-03-29T12:36:35.602Z,16.91
2023-03-29T12:38:24.611Z,17.00
2023-03-29T12:39:45.703Z,17.32
2023-03-29T12:41:23.313Z,16.77
2023-03-29T12:42:56.913Z,16.71
2023-03-29T12:44:20.512Z,16.30
2023-03-29T12:45:38.614Z,16.57
2023-03-29T12:46:41.129Z,16.46
2023-03-29T12:47:45.894Z,16.51
2023-03-29T12:48:53.981Z,16.44
2023-03-29T12:49:58.319Z,16.64
2023-03-29T12:51:03.302Z,16.81
2023-03-29T12:52:29.979Z,16.73
2023-03-29T12:53:35.920Z,16.86
2023-03-29T12:54:41.068Z,17.07
2023-03-29T12:55:43.510Z,16.91
2023-03-29T12:56:51.836Z,17.12
2023-03-29T12:58:03.562Z,17.06
2023-03-29T12:59:10.729Z,16.74
2023-03-29T13:00:22.386Z,16.61
2023-03-29T13:01:29.601Z,16.64
2023-03-29T13:02:42.019Z,17.08
2023-03-29T13:03:52.715Z,17.32
2023-03-29T13:04:57.451Z,17.57
2023-03-29T13:06:03.531Z,18.15
2023-03-29T13:07:12.506Z,18.01
2023-03-29T13:08:27.324Z,18.26
2023-03-29T13:09:31.179Z,18.45
2023-03-29T13:10:42.729Z,18.05
2023-03-29T13:11:51.576Z,17.57
2023-03-29T13:12:54.552Z,16.87
2023-03-29T13:13:57.908Z,16.95
2023-03-29T13:15:02.820Z,17.16
2023-03-29T13:16:19.729Z,17.05
2023-03-29T13:17:31.807Z,17.48
2023-03-29T13:18:56.009Z,17.38
2023-03-29T13:20:31.826Z,17.41
2023-03-29T13:22:07.266Z,17.12
2023-03-29T13:23:27.044Z,16.56
2023-03-29T13:24:39.026Z,16.42
2023-03-29T13:25:59.527Z,16.46
2023-03-29T13:27:25.197Z,16.13
2023-03-29T13:28:49.175Z,16.27
2023-03-29T13:30:26.655Z,16.34
2023-03-29T13:31:41.703Z,16.04
2023-03-29T13:33:05.495Z,16.15
2023-03-29T13:34:26.606Z,15.82
2023-03-29T13:35:54.927Z,15.53
2023-03-29T13:37:00.377Z,15.72
2023-03-29T13:38:20.904Z,15.55
2023-03-29T13:39:28.450Z,15.34
2023-03-29T13:40:33.052Z,15.27
2023-03-29T13:41:38.062Z,15.53
2023-03-29T13:42:41.952Z,15.25
2023-03-29T13:43:44.649Z,15.27
2023-03-29T13:44:49.230Z,15.41
2023-03-29T13:46:23.714Z,15.19
2023-03-29T13:47:26.359Z,14.93
2023-03-29T13:48:31.805Z,15.10
2023-03-29T13:49:35.533Z,15.02
2023-03-29T13:50:51.371Z,15.20
2023-03-29T13:51:53.568Z,15.15
2023-03-29T13:53:05.085Z,15.06
2023-03-29T13:54:35.016Z,14.91
2023-03-29T13:55:44.227Z,15.06
2023-03-29T13:57:11.015Z,14.98
2023-03-29T13:58:29.042Z,14.72
2023-03-29T13:59:55.044Z,14.93
2023-03-29T14:01:23.270Z,15.09
2023-03-29T14:02:40.613Z,15.16
2023-03-29T14:03:46.850Z,15.45
2023-03-29T14:04:52.049Z,15.28
2023-03-29T14:05:59.585Z,15.42
2023-03-29T14:07:02.346Z,15.43
2023-03-29T14:08:33.358Z,15.71
2023-03-29T14:09:42.210Z,15.78
2023-03-29T14:10:45.812Z,15.87
2023-03-29T14:11:48.466Z,15.74
2023-03-29T14:12:51.064Z,15.84
2023-03-29T14:13:55.703Z,15.64
2023-03-29T14:15:01.514Z,15.44
2023-03-29T14:16:10.271Z,15.24
2023-03-29T14:17:19.181Z,15.44
2023-03-29T14:18:23.874Z,15.09
2023-03-29T14:19:32.473Z,15.08
2023-03-29T14:20:34.903Z,15.54
2023-03-29T14:21:37.440Z,15.89
2023-03-29T14:22:44.147Z,15.98
2023-03-29T14:23:55.045Z,16.32
2023-03-29T14:25:05.111Z,15.66
2023-03-29T14:26:19.671Z,15.84
2023-03-29T14:27:22.369Z,15.95
2023-03-29T14:28:28.789Z,16.11
2023-03-29T14:29:35.512Z,16.03
2023-03-29T14:30:37.827Z,16.09
2023-03-29T14:31:42.161Z,16.07
2023-03-29T14:32:44.913Z,15.90
2023-03-29T14:33:55.318Z,16.20
2023-03-29T14:34:58.787Z,16.11
2023-03-29T14:36:04.295Z,15.90
2023-03-29T14:37:09.058Z,15.91
2023-03-29T14:38:12.789Z,16.00
2023-03-29T14:39:18.451Z,15.82
2023-03-29T14:40:21.025Z,15.74
2023-03-29T14:41:24.546Z,15.84
2023-03-29T14:42:29.033Z,16.04
2023-03-29T14:43:32.104Z,16.33
2023-03-29T14:44:34.739Z,16.29
2023-03-29T14:45:37.930Z,16.19
2023-03-29T14:46:41.745Z,15.99
2023-03-29T14:47:45.344Z,15.47
2023-03-29T14:48:48.177Z,15.54
2023-03-29T14:49:51.344Z,15.62
2023-03-29T14:50:53.760Z,15.63
2023-03-29T14:51:57.011Z,15.58
2023-03-29T14:53:01.343Z,15.91
2023-03-29T14:54:05.470Z,15.93
2023-03-29T14:55:10.957Z,15.99
2023-03-29T14:56:17.984Z,15.74
2023-03-29T14:57:24.552Z,15.87
2023-03-29T14:58:33.457Z,16.15
2023-03-29T14:59:36.948Z,16.13
2023-03-29T15:00:43.953Z,16.39
2023-03-29T15:01:46.345Z,16.41
2023-03-29T15:02:57.482Z,16.51
2023-03-29T15:04:06.201Z,16.62
2023-03-29T15:05:25.973Z,16.46
2023-03-29T15:06:29.702Z,16.44
2023-03-29T15:07:34.578Z,16.70
2023-03-29T15:08:39.568Z,16.88
2023-03-29T15:09:45.343Z,17.23
2023-03-29T15:10:47.600Z,17.18
2023-03-29T15:11:58.615Z,17.14
2023-03-29T15:13:03.779Z,16.87
2023-03-29T15:14:09.409Z,17.01
2023-03-29T15:15:13.472Z,17.01
2023-03-29T15:16:27.682Z,16.85
2023-03-29T15:17:49.565Z,16.96
2023-03-29T15:18:53.889Z,17.33
2023-03-29T15:20:09.687Z,17.01
2023-03-29T15:21:14.893Z,16.91
2023-03-29T15:22:17.255Z,16.64
2023-03-29T15:23:23.046Z,16.63
2023-03-29T15:24:30.991Z,16.67
2023-03-29T15:25:37.060Z,16.79
2023-03-29T15:26:39.372Z,16.56
2023-03-29T15:27:42.348Z,16.34
2023-03-29T15:28:50.752Z,16.20
2023-03-29T15:30:02.621Z,16.25
2023-03-29T15:31:18.984Z,16.01
2023-03-29T15:32:23.957Z,15.71
2023-03-29T15:33:33.681Z,15.55
2023-03-29T15:34:38.178Z,15.68
2023-03-29T15:35:40.758Z,15.85
2023-03-29T15:36:46.888Z,16.02
2023-03-29T15:37:51.399Z,16.24
2023-03-29T15:38:53.691Z,16.03